Details From ENVA - Vaernes
To ENKB - Kvernberget
Flight Number -
Tags Routegen Generated
Created
Modified
Stats Distance 85 nm / 157 km
Max Altitude 500 ft / 152 m
Waypoints 9
Social Downloads 3
Likes 0
Share VATSIM

Download

Looking for another format? Having issues loading an existing format? Contact us
Advertisement - Login to hide

Notes

Departing runway 27 ENVA. Arriving runway 7 ENKB.

Route

ENVA +63.46_+010.73 +63.46_+010.70 +63.45_+010.66 +63.45_+010.63 +63.33_+009.58 +63.16_+008.18 +63.16_+008.15 ENKB

ID Type Via Altitude Latitude Longitude Leg Dist Tot Dist Heading (true) Name
O ENVA APT - 0 ft / 0 m 63.45766˚ 10.88929˚ - 0 nm - -
+63.46_+010.73 DME - 500 ft / 152 m 63.45789˚ 10.72735˚ 4 nm 4 nm 270° / 270° -
+63.46_+010.70 DME - 500 ft / 152 m 63.45669˚ 10.69507˚ 0 nm 5 nm 265° / 265° -
+63.45_+010.66 DME - 500 ft / 152 m 63.45424˚ 10.66315˚ 0 nm 6 nm 260° / 260° -
+63.45_+010.63 DME - 500 ft / 152 m 63.45055˚ 10.63184˚ 0 nm 6 nm 255° / 255° -
+63.33_+009.58 DME - 500 ft / 152 m 63.33138˚ 9.57745˚ 29 nm 36 nm 256° / 255° -
+63.16_+008.18 DME - 500 ft / 152 m 63.16376˚ 8.17733˚ 39 nm 75 nm 256° / 254° -
+63.16_+008.15 DME - 500 ft / 152 m 63.16036˚ 8.14617˚ 0 nm 76 nm 256° / 256° -
O ENKB APT - 0 ft / 0 m 63.11458˚ 7.84231˚ 8 nm 84 nm 252° / 251° -

Altitude Profile

Advertisement - Login to hide

ENVA

Details ICAO ENVA (TRD)
Name Vaernes
Region Norway
Timezone Europe/Oslo (UTC+1.0)
Stats Elevation 56 ft / 17 m (AMSL)
Location 63.457605° 10.917980°
Runways 1
Magnetic Variation 3.495° E

METAR

ENVA 140150Z 09006KT CAVOK M09/M10 Q0982 RMK WIND 670FT 12006KT

Decode

TAF

TAF ENVA 132300Z 1400/1424 11006KT CAVOK

Decode

Departure Runways

ID Width Length Bearing (true) Bearing (mag) Surface Threshold Offset Overrun Length
09 148 ft / 45 m 9,356 ft / 2,852 m 90.21° 86.72° Asphalt 984 ft / 300 m 0 ft / 0 m
27 148 ft / 45 m 9,356 ft / 2,852 m 270.26° 266.77° Asphalt 689 ft / 210 m 0 ft / 0 m

ENKB

Details ICAO ENKB (KSU)
Name KVERNBERGET
Region Norway
Timezone Europe/Oslo (UTC+1.0)
Stats Elevation 204 ft / 62 m (AMSL)
Location 63.111872° 7.824532°
Runways 1
Magnetic Variation 1.984° E

METAR

ENKB 140220Z AUTO 09005KT 060V120 9999 OVC064/// 01/M04 Q0979 RMK WIND 745FT 11010KT

Decode

TAF

Not found

Destination Runways

ID Width Length Bearing (true) Bearing (mag) Surface Threshold Offset Overrun Length
07 148 ft / 45 m 6,192 ft / 1,887 m 71.39° 69.41° Asphalt 197 ft / 60 m 0 ft / 0 m
25 148 ft / 45 m 6,192 ft / 1,887 m 251.42° 249.44° Asphalt 263 ft / 80 m 0 ft / 0 m

Approach Navaids

Runway Type Ident Frequency Range Bearing (true) Bearing (mag) Slope Elevation
07 Localiser KB 110.10 MHz 18 nm / 33 km 71.60° 69.62° - 204 ft / 62 m (AMSL)
07 Glidescope KB 110.10 MHz 10 nm / 19 km 71.41° 69.42° 3.00° 204 ft / 62 m (AMSL)

Popular Alternatives